Time;durP1;ratioP1;P1;durP2;ratioP2;P2;SDS_P1;SDS_P2;PMS_P1;PMS_P2;Temp;Humidity;BMP_temperature;BMP_pressure;BME280_temperature;BME280_humidity;BME280_pressure;Samples;Min_cycle;Max_cycle;Signal;HPM_P1;HPM_P2
2023/07/06 00:02:24;;;;;;;4.93;1.70;;;;;;;22.46;63.30;97974.88;4393959;32;20101;-75
2023/07/06 00:04:52;;;;;;;4.47;1.48;;;;;;;22.09;64.25;97980.03;4394380;32;20380;-75
2023/07/06 00:07:21;;;;;;;3.60;1.40;;;;;;;22.33;64.00;97974.37;4394366;32;20358;-75
2023/07/06 00:09:49;;;;;;;3.97;1.67;;;;;;;21.88;65.98;97980.16;4393794;32;20101;-75
2023/07/06 00:12:18;;;;;;;4.72;1.58;;;;;;;21.91;65.42;97979.06;4394276;32;20100;-75
2023/07/06 00:14:45;;;;;;;4.28;1.37;;;;;;;21.90;66.13;97982.63;4394328;32;20494;-75
2023/07/06 00:17:14;;;;;;;3.72;1.60;;;;;;;21.48;67.91;97976.78;4393846;32;20110;-75
2023/07/06 00:19:41;;;;;;;5.75;2.25;;;;;;;22.50;64.00;97973.63;4380462;32;20103;-76
2023/07/06 00:22:10;;;;;;;6.95;1.90;;;;;;;22.05;64.55;97978.66;4381379;32;20074;-75
2023/07/06 00:24:38;;;;;;;4.15;1.67;;;;;;;22.44;63.73;97979.47;4395717;32;20113;-75
2023/07/06 00:27:05;;;;;;;5.00;1.70;;;;;;;22.92;62.05;97977.69;4396036;32;20114;-75
2023/07/06 00:29:38;;;;;;;4.57;1.70;;;;;;;22.12;65.08;97974.53;4395847;32;20163;-75
2023/07/06 00:32:27;;;;;;;7.00;1.85;;;;;;;22.30;64.12;97964.13;4395996;32;20433;-75
2023/07/06 00:34:55;;;;;;;4.93;1.55;;;;;;;22.64;62.38;97967.06;4396024;32;20154;-76
2023/07/06 00:37:22;;;;;;;2.85;1.40;;;;;;;22.43;63.41;97959.37;4395683;32;20441;-75
2023/07/06 00:39:50;;;;;;;6.75;1.70;;;;;;;22.88;61.50;97961.38;4382365;32;20177;-75
2023/07/06 00:42:19;;;;;;;4.70;1.73;;;;;;;22.47;62.72;97965.19;4395826;32;20098;-75
2023/07/06 00:44:52;;;;;;;6.05;1.92;;;;;;;22.28;63.06;97962.59;4395568;32;20456;-75
2023/07/06 00:47:29;;;;;;;6.03;1.80;;;;;;;22.43;62.85;97967.25;4382496;32;20155;-75
2023/07/06 00:50:01;;;;;;;6.30;2.20;;;;;;;23.59;59.13;97971.25;4395912;32;20090;-75
2023/07/06 00:52:29;;;;;;;5.75;1.85;;;;;;;23.28;59.53;97973.34;4382155;32;20074;-75
2023/07/06 00:54:56;;;;;;;4.47;1.52;;;;;;;23.22;58.96;97964.25;4395843;32;20169;-75
2023/07/06 00:57:23;;;;;;;4.28;1.55;;;;;;;23.64;57.98;97969.84;4382344;32;20170;-75
2023/07/06 00:59:50;;;;;;;3.35;1.45;;;;;;;23.08;59.55;97962.12;4395344;32;20452;-75
2023/07/06 01:02:18;;;;;;;5.32;1.60;;;;;;;22.63;60.63;97968.03;4382179;32;20082;-75
2023/07/06 01:04:45;;;;;;;6.87;1.87;;;;;;;22.52;61.42;97965.59;4381884;32;20105;-75
2023/07/06 01:07:17;;;;;;;4.37;1.62;;;;;;;22.53;62.50;97962.81;4382296;32;20146;-75
2023/07/06 01:09:45;;;;;;;4.15;1.33;;;;;;;22.81;61.05;97963.69;4382095;32;20086;-75
2023/07/06 01:12:12;;;;;;;3.58;1.50;;;;;;;22.10;63.11;97973.81;4395282;32;20142;-75
2023/07/06 01:14:40;;;;;;;3.97;1.40;;;;;;;22.59;61.70;97971.94;4382195;32;20098;-75
2023/07/06 01:17:14;;;;;;;5.95;1.52;;;;;;;23.05;59.09;97963.22;4395800;32;20143;-75
2023/07/06 01:20:10;;;;;;;3.92;1.48;;;;;;;22.55;60.39;97965.31;4381981;32;20121;-75
2023/07/06 01:22:40;;;;;;;3.60;1.30;;;;;;;22.58;59.95;97957.16;4382839;32;20086;-75
2023/07/06 01:25:28;;;;;;;5.70;1.40;;;;;;;23.09;57.85;97953.25;4395641;32;20169;-75
2023/07/06 01:28:18;;;;;;;4.05;1.42;;;;;;;22.84;57.14;97962.59;4395349;32;20164;-75
2023/07/06 01:31:23;;;;;;;3.10;1.48;;;;;;;22.86;57.39;97955.41;4381872;32;20086;-75
2023/07/06 01:33:56;;;;;;;4.40;1.58;;;;;;;22.81;56.76;97968.97;4394916;32;20085;-75
2023/07/06 01:36:28;;;;;;;4.22;1.70;;;;;;;23.18;56.29;97965.53;4395620;32;20121;-75
2023/07/06 01:39:13;;;;;;;4.30;1.65;;;;;;;22.72;57.22;97972.44;4381973;32;20122;-75
2023/07/06 01:41:40;;;;;;;4.97;1.67;;;;;;;22.28;58.35;97970.50;4381687;32;20094;-75
2023/07/06 01:44:10;;;;;;;4.10;1.45;;;;;;;22.68;57.47;97967.63;4395412;32;20164;-75
2023/07/06 01:46:38;;;;;;;4.87;1.65;;;;;;;22.55;58.22;97978.47;4382009;32;20142;-75
2023/07/06 01:49:06;;;;;;;3.62;1.40;;;;;;;22.79;57.59;97984.06;4395053;32;20437;-75
2023/07/06 01:51:59;;;;;;;7.12;3.28;;;;;;;22.17;60.10;97987.25;4395405;32;20488;-75
2023/07/06 01:54:41;;;;;;;5.40;1.80;;;;;;;22.75;58.91;97992.38;4395276;32;20566;-75
2023/07/06 01:57:19;;;;;;;4.90;1.50;;;;;;;22.58;59.68;97991.31;4395547;32;20452;-75
2023/07/06 01:59:49;;;;;;;5.65;1.73;;;;;;;23.03;59.32;97990.66;4395278;32;20601;-75
2023/07/06 02:02:16;;;;;;;5.82;2.03;;;;;;;23.17;58.89;97998.06;4381766;32;20177;-75
2023/07/06 02:04:43;;;;;;;5.10;2.00;;;;;;;22.67;59.79;98002.81;4395374;32;20138;-75
2023/07/06 02:07:12;;;;;;;5.97;1.80;;;;;;;22.79;60.23;98005.09;4382701;32;20156;-76
2023/07/06 02:09:46;;;;;;;5.78;1.90;;;;;;;23.42;58.61;98019.44;4396228;32;20139;-76
2023/07/06 02:12:13;;;;;;;7.80;1.90;;;;;;;23.57;58.52;98023.22;4395203;32;20104;-75
2023/07/06 02:14:42;;;;;;;3.90;1.80;;;;;;;23.55;58.17;98020.72;4395337;32;20098;-75
2023/07/06 02:17:10;;;;;;;7.15;1.85;;;;;;;23.31;59.37;98023.91;4395052;32;20140;-75
2023/07/06 02:19:38;;;;;;;6.35;2.10;;;;;;;23.65;57.65;98029.44;4395197;32;20087;-75
2023/07/06 02:22:05;;;;;;;5.22;1.80;;;;;;;22.70;61.95;98029.63;4395000;32;20161;-75
2023/07/06 02:24:32;;;;;;;5.70;2.08;;;;;;;22.78;62.62;98024.50;4395134;32;20156;-75
2023/07/06 02:26:59;;;;;;;8.18;2.10;;;;;;;22.80;64.64;98033.06;4395314;32;20109;-75
2023/07/06 02:29:26;;;;;;;8.63;1.90;;;;;;;23.29;63.80;98033.78;4381179;32;20114;-76
2023/07/06 02:31:53;;;;;;;6.72;1.80;;;;;;;23.36;63.44;98032.19;4395206;32;20173;-75
2023/07/06 02:34:26;;;;;;;6.78;2.17;;;;;;;22.31;68.77;98041.16;4395269;32;20433;-75
2023/07/06 02:36:55;;;;;;;8.50;2.17;;;;;;;22.08;69.64;98051.94;4394939;32;20522;-75
2023/07/06 02:39:24;;;;;;;6.53;2.08;;;;;;;22.37;69.66;98062.47;4395112;32;20117;-75
2023/07/06 02:41:56;;;;;;;9.10;2.25;;;;;;;21.94;71.58;98060.22;4395192;32;20086;-75
2023/07/06 02:44:23;;;;;;;6.55;1.80;;;;;;;21.81;73.35;98072.78;4393959;32;20082;-75
2023/07/06 02:46:51;;;;;;;4.80;1.77;;;;;;;21.94;70.77;98073.34;4395204;32;20112;-75
2023/07/06 02:49:18;;;;;;;5.12;2.00;;;;;;;21.91;71.48;98077.09;4395088;32;20109;-75
2023/07/06 02:51:46;;;;;;;6.03;1.95;;;;;;;22.20;69.95;98079.75;4394626;32;20145;-75
2023/07/06 02:54:15;;;;;;;5.62;1.95;;;;;;;21.34;75.31;98075.94;4395088;32;20083;-75
2023/07/06 02:56:42;;;;;;;6.80;1.80;;;;;;;21.73;72.74;98083.94;4395032;32;20169;-75
2023/07/06 02:59:10;;;;;;;6.43;1.80;;;;;;;21.94;70.50;98092.56;4394654;32;20095;-75
2023/07/06 03:01:37;;;;;;;6.03;1.83;;;;;;;21.93;69.68;98090.91;4394913;32;20429;-75
2023/07/06 03:04:09;;;;;;;5.28;1.62;;;;;;;21.47;71.78;98091.47;4394605;32;20085;-75
2023/07/06 03:06:37;;;;;;;6.22;1.60;;;;;;;21.59;70.68;98084.34;4395068;32;20445;-75
2023/07/06 03:09:05;;;;;;;6.55;1.83;;;;;;;21.24;72.08;98085.53;4395018;32;20150;-75
2023/07/06 03:11:32;;;;;;;3.45;1.48;;;;;;;20.82;74.09;98090.00;4394344;32;20078;-75
2023/07/06 03:14:00;;;;;;;6.82;1.70;;;;;;;20.73;74.85;98090.75;4394832;32;20102;-75
2023/07/06 03:16:27;;;;;;;5.37;1.85;;;;;;;20.97;75.31;98098.38;4395010;32;20487;-75
2023/07/06 03:18:54;;;;;;;5.90;2.05;;;;;;;21.07;74.34;98105.34;4394495;32;20181;-75
2023/07/06 03:21:21;;;;;;;6.10;1.60;;;;;;;20.98;75.17;98126.28;4394825;32;20094;-75
2023/07/06 03:23:49;;;;;;;7.68;2.30;;;;;;;20.83;76.56;98128.38;4394761;32;20129;-75
2023/07/06 03:26:16;;;;;;;4.72;1.70;;;;;;;20.95;76.72;98135.25;4394432;32;20780;-75
2023/07/06 03:28:43;;;;;;;4.40;1.70;;;;;;;21.05;75.80;98144.00;4394694;32;20098;-75
2023/07/06 03:31:19;;;;;;;6.12;2.10;;;;;;;21.08;75.70;98135.88;4382245;32;20090;-75
2023/07/06 03:33:46;;;;;;;6.68;2.00;;;;;;;21.49;74.82;98126.31;4394459;32;20174;-75
2023/07/06 03:36:13;;;;;;;7.75;2.37;;;;;;;21.17;75.67;98113.28;4394715;32;20094;-75
2023/07/06 03:38:40;;;;;;;7.45;1.90;;;;;;;20.30;82.31;98096.91;4394716;32;20444;-75
2023/07/06 03:41:07;;;;;;;6.37;1.90;;;;;;;20.07;83.47;98079.59;4380664;32;20126;-75
2023/07/06 03:43:34;;;;;;;6.32;1.62;;;;;;;19.60;87.07;98073.78;4394603;32;20405;-75
2023/07/06 03:46:03;;;;;;;6.60;1.80;;;;;;;19.40;89.99;98061.38;4394376;32;20425;-75
2023/07/06 03:48:30;;;;;;;9.50;2.05;;;;;;;18.90;92.18;98046.03;4394728;32;20090;-75
2023/07/06 03:51:03;;;;;;;4.53;1.85;;;;;;;18.63;95.97;98051.56;4394461;32;20154;-75
2023/07/06 03:53:31;;;;;;;6.90;1.87;;;;;;;18.10;99.15;98053.75;4394389;32;20066;-75
2023/07/06 03:55:58;;;;;;;5.90;2.00;;;;;;;18.44;97.33;98046.03;4394295;32;20098;-75
2023/07/06 03:58:25;;;;;;;4.65;1.87;;;;;;;18.36;99.13;98049.22;4394543;32;20086;-75
2023/07/06 04:00:52;;;;;;;5.85;2.12;;;;;;;18.33;100.00;98046.00;4393986;32;20178;-75
2023/07/06 04:03:19;;;;;;;15.27;2.60;;;;;;;18.81;97.96;98046.72;4394349;32;20087;-75
2023/07/06 04:05:47;;;;;;;9.40;2.22;;;;;;;18.57;98.13;98059.84;4394395;32;20338;-75
2023/07/06 04:08:19;;;;;;;6.90;2.22;;;;;;;18.68;97.43;98057.28;4394116;32;20105;-75
2023/07/06 04:10:46;;;;;;;6.35;2.37;;;;;;;19.19;94.78;98069.12;4394066;32;20149;-75
2023/07/06 04:13:16;;;;;;;6.57;2.00;;;;;;;19.92;89.24;98076.44;4394366;32;20369;-75
2023/07/06 04:15:45;;;;;;;6.10;1.92;;;;;;;20.08;86.86;98079.47;4393976;32;20090;-75
2023/07/06 04:18:15;;;;;;;6.53;2.00;;;;;;;20.09;86.59;98075.88;4380655;32;20105;-75
2023/07/06 04:20:44;;;;;;;4.30;1.62;;;;;;;20.04;85.96;98066.75;4380608;32;20165;-75
2023/07/06 04:23:12;;;;;;;6.00;2.20;;;;;;;19.63;89.52;98063.88;4380293;32;20385;-75
2023/07/06 04:25:39;;;;;;;4.97;1.60;;;;;;;19.90;86.46;98060.84;4394128;32;20085;-75
2023/07/06 04:28:10;;;;;;;5.65;1.90;;;;;;;19.66;87.91;98068.03;4394994;32;20229;-76
2023/07/06 04:30:40;;;;;;;5.55;1.85;;;;;;;19.94;87.59;98077.97;4381090;32;20169;-75
2023/07/06 04:33:10;;;;;;;6.25;2.03;;;;;;;20.16;84.39;98071.00;4394020;32;20598;-75
2023/07/06 04:35:37;;;;;;;4.90;1.75;;;;;;;20.15;85.02;98071.97;4380524;32;20121;-75
2023/07/06 04:38:06;;;;;;;5.97;1.87;;;;;;;20.24;85.42;98073.84;4394001;32;20441;-75
2023/07/06 04:40:34;;;;;;;5.87;1.98;;;;;;;20.19;83.83;98068.13;4393710;32;20112;-75
2023/07/06 04:43:01;;;;;;;7.15;2.22;;;;;;;19.95;85.45;98084.03;4393603;32;20133;-75
2023/07/06 04:45:27;;;;;;;7.50;2.58;;;;;;;20.35;82.67;98091.28;4393693;32;20126;-75
2023/07/06 04:47:57;;;;;;;5.25;2.17;;;;;;;20.98;79.96;98084.31;4393801;32;20474;-75
2023/07/06 04:50:24;;;;;;;6.07;2.10;;;;;;;21.08;77.91;98085.19;4393173;32;20107;-75
2023/07/06 04:52:55;;;;;;;7.15;2.60;;;;;;;21.24;76.42;98089.94;4393710;32;20082;-75
2023/07/06 04:55:23;;;;;;;6.20;1.90;;;;;;;20.89;76.91;98092.94;4393825;32;20136;-75
2023/07/06 04:57:55;;;;;;;6.93;2.20;;;;;;;21.00;78.07;98096.34;4379743;32;20114;-75
2023/07/06 05:00:26;;;;;;;4.95;1.87;;;;;;;21.35;74.14;98092.50;4393442;32;20164;-75
2023/07/06 05:02:58;;;;;;;5.62;1.90;;;;;;;20.98;76.66;98097.44;4393620;32;20158;-75
2023/07/06 05:05:28;;;;;;;7.35;2.55;;;;;;;20.94;76.59;98088.97;4393133;32;20400;-75
2023/07/06 05:07:57;;;;;;;4.65;1.60;;;;;;;20.88;77.50;98093.91;4394348;32;20117;-75
2023/07/06 05:10:26;;;;;;;7.20;2.30;;;;;;;20.80;77.12;98092.75;4381725;32;20090;-75
2023/07/06 05:12:55;;;;;;;5.87;2.10;;;;;;;20.28;80.87;98088.34;4395771;32;20086;-75
2023/07/06 05:15:23;;;;;;;7.35;2.30;;;;;;;20.27;81.77;98091.09;4395744;32;20102;-75
2023/07/06 05:17:50;;;;;;;6.10;2.17;;;;;;;20.73;78.95;98099.47;4395364;32;20159;-75
2023/07/06 05:20:18;;;;;;;9.88;2.30;;;;;;;21.54;75.06;98103.09;4395490;32;20109;-75
2023/07/06 05:22:48;;;;;;;6.10;2.30;;;;;;;21.35;75.61;98092.50;4395796;32;20245;-75
2023/07/06 05:25:19;;;;;;;5.50;1.90;;;;;;;21.59;74.41;98110.59;4395308;32;20154;-75
2023/07/06 05:27:47;;;;;;;8.20;2.20;;;;;;;22.03;70.99;98108.50;4382451;32;20530;-75
2023/07/06 05:30:14;;;;;;;6.97;2.22;;;;;;;21.65;73.62;98108.25;4395441;32;20112;-76
2023/07/06 05:32:41;;;;;;;7.07;2.30;;;;;;;22.01;70.02;98110.41;4395347;32;20124;-75
2023/07/06 05:35:09;;;;;;;4.62;1.92;;;;;;;21.41;73.85;98109.53;4395558;32;20109;-75
2023/07/06 05:37:36;;;;;;;5.20;2.05;;;;;;;21.20;77.34;98112.19;4382084;32;20109;-75
2023/07/06 05:40:06;;;;;;;5.85;2.15;;;;;;;21.74;74.99;98108.41;4395229;32;20404;-74
2023/07/06 05:42:33;;;;;;;5.80;2.37;;;;;;;21.95;72.03;98114.41;4395577;32;20137;-75
2023/07/06 05:45:00;;;;;;;6.68;2.30;;;;;;;21.99;71.87;98112.34;4395457;32;20108;-76
2023/07/06 05:47:27;;;;;;;5.00;1.90;;;;;;;22.26;71.88;98120.44;4395246;32;20078;-75
2023/07/06 05:49:54;;;;;;;5.35;2.35;;;;;;;22.65;68.61;98126.53;4395455;32;20087;-76
2023/07/06 05:52:22;;;;;;;7.95;2.30;;;;;;;22.79;69.33;98126.09;4395049;32;20086;-76
2023/07/06 05:54:48;;;;;;;4.80;2.00;;;;;;;23.37;65.05;98123.34;4381875;32;20121;-75
2023/07/06 05:57:19;;;;;;;6.47;2.20;;;;;;;23.73;63.88;98127.97;4395492;32;20440;-75
2023/07/06 05:59:48;;;;;;;8.13;2.40;;;;;;;23.50;63.66;98135.38;4395086;32;20162;-75
2023/07/06 06:02:17;;;;;;;5.53;2.20;;;;;;;23.69;64.69;98131.84;4395470;32;20083;-75
2023/07/06 06:04:47;;;;;;;6.68;2.30;;;;;;;23.03;66.60;98143.28;4395287;32;20452;-75
2023/07/06 06:07:15;;;;;;;10.30;2.45;;;;;;;22.95;67.08;98145.78;4381678;32;20085;-79
2023/07/06 06:09:42;;;;;;;9.45;2.58;;;;;;;24.09;62.30;98144.69;4398665;32;20145;-80
2023/07/06 06:12:18;;;;;;;8.30;2.17;;;;;;;23.36;63.97;98140.13;4398730;32;20105;-81
2023/07/06 06:14:47;;;;;;;8.13;2.28;;;;;;;22.84;65.89;98144.13;4400235;32;20102;-81
2023/07/06 06:17:15;;;;;;;6.43;2.40;;;;;;;23.17;64.04;98140.19;4397563;32;20098;-80
2023/07/06 06:19:45;;;;;;;5.87;2.10;;;;;;;22.27;67.37;98137.88;4396903;32;20153;-81
2023/07/06 06:22:15;;;;;;;7.87;2.20;;;;;;;22.59;66.69;98132.34;4396827;32;20109;-81
2023/07/06 06:24:43;;;;;;;9.40;2.50;;;;;;;22.13;70.74;98133.03;4396348;32;20152;-80
2023/07/06 06:27:14;;;;;;;7.72;2.15;;;;;;;22.46;70.71;98137.88;4397512;32;20124;-81
2023/07/06 06:29:45;;;;;;;5.78;2.17;;;;;;;22.81;67.14;98132.06;4395020;32;20453;-80
2023/07/06 06:32:13;;;;;;;8.43;2.25;;;;;;;22.78;66.41;98131.50;4398145;32;20086;-80
2023/07/06 06:34:41;;;;;;;5.45;2.30;;;;;;;23.25;65.77;98124.50;4400919;32;20063;-81
2023/07/06 06:37:09;;;;;;;5.37;2.03;;;;;;;22.44;66.68;98128.50;4403768;32;20137;-80
2023/07/06 06:39:39;;;;;;;7.85;2.33;;;;;;;21.95;69.04;98115.25;4399061;32;20101;-80
2023/07/06 06:42:07;;;;;;;7.03;2.55;;;;;;;22.49;67.71;98118.37;4397592;32;20082;-80
2023/07/06 06:44:35;;;;;;;6.20;2.05;;;;;;;22.90;67.27;98121.69;4383016;32;20168;-80
2023/07/06 06:47:04;;;;;;;7.28;2.33;;;;;;;23.51;62.94;98122.09;4395757;32;20526;-80
2023/07/06 06:49:34;;;;;;;5.20;2.08;;;;;;;24.38;60.34;98119.00;4397171;32;20160;-81
2023/07/06 06:52:03;;;;;;;7.10;2.45;;;;;;;25.03;57.45;98127.47;4398301;32;20063;-81
2023/07/06 06:54:31;;;;;;;6.75;2.35;;;;;;;24.44;60.72;98125.44;4398103;32;20154;-80
2023/07/06 06:57:00;;;;;;;7.07;2.40;;;;;;;25.70;55.89;98125.03;4395182;32;20424;-79
2023/07/06 06:59:27;;;;;;;5.40;1.95;;;;;;;26.14;51.40;98130.12;4395146;32;20090;-80
2023/07/06 07:01:54;;;;;;;4.97;2.20;;;;;;;26.72;51.82;98131.91;4396923;32;20516;-80
2023/07/06 07:04:22;;;;;;;7.93;2.35;;;;;;;26.52;51.86;98124.28;4400430;32;20099;-81
2023/07/06 07:06:49;;;;;;;8.55;2.22;;;;;;;26.86;50.19;98127.75;4402176;32;20063;-81
2023/07/06 07:09:17;;;;;;;6.40;2.60;;;;;;;26.42;52.43;98125.44;4400243;32;20094;-81
2023/07/06 07:11:45;;;;;;;8.80;2.87;;;;;;;27.03;48.91;98121.50;4399212;32;20091;-81
2023/07/06 07:14:15;;;;;;;7.28;2.53;;;;;;;27.08;48.78;98132.41;4389412;32;20103;-82
2023/07/06 07:16:42;;;;;;;7.15;2.47;;;;;;;27.89;48.28;98116.28;4402749;32;20117;-82
2023/07/06 07:19:13;;;;;;;7.90;2.53;;;;;;;27.63;47.78;98118.34;4404847;32;20073;-81
2023/07/06 07:21:40;;;;;;;6.70;2.65;;;;;;;28.42;47.47;98114.69;4389779;32;20102;-83
2023/07/06 07:24:08;;;;;;;8.02;2.40;;;;;;;28.28;45.98;98110.09;4400167;32;20142;-83
2023/07/06 07:26:35;;;;;;;8.25;2.33;;;;;;;28.64;45.43;98105.06;4388286;32;20091;-83
2023/07/06 07:29:03;;;;;;;5.93;2.37;;;;;;;29.58;44.53;98111.63;4388797;32;20806;-83
2023/07/06 07:31:31;;;;;;;7.32;2.45;;;;;;;29.26;45.19;98096.88;4398180;32;20498;-82
2023/07/06 07:33:59;;;;;;;7.22;2.85;;;;;;;28.21;46.41;98102.03;4397785;32;20109;-83
2023/07/06 07:36:26;;;;;;;5.78;2.30;;;;;;;29.08;44.24;98107.81;4400181;32;20117;-83
2023/07/06 07:38:56;;;;;;;8.15;2.50;;;;;;;29.44;42.39;98107.09;4400584;32;20773;-82
2023/07/06 07:41:24;;;;;;;6.95;2.70;;;;;;;27.61;45.76;98107.09;4399778;32;20083;-82
2023/07/06 07:43:51;;;;;;;7.72;2.65;;;;;;;27.21;45.08;98108.88;4395959;32;20121;-83
2023/07/06 07:46:19;;;;;;;6.47;2.53;;;;;;;26.95;46.42;98110.87;4400212;32;20080;-83
2023/07/06 07:48:49;;;;;;;6.87;2.50;;;;;;;25.98;46.12;98108.97;4398634;32;20063;-83
2023/07/06 07:51:21;;;;;;;6.40;2.33;;;;;;;26.64;45.04;98108.91;4396106;32;20141;-83
2023/07/06 07:53:48;;;;;;;6.53;2.60;;;;;;;27.32;44.24;98100.56;4399651;32;20119;-83
2023/07/06 07:56:15;;;;;;;7.53;2.67;;;;;;;27.00;44.81;98108.53;4400722;32;20605;-84
2023/07/06 07:58:48;;;;;;;7.57;2.70;;;;;;;27.23;45.42;98114.03;4395734;32;20091;-84
2023/07/06 08:01:23;;;;;;;8.02;2.53;;;;;;;27.20;44.17;98112.50;4382327;32;20125;-84
2023/07/06 08:03:52;;;;;;;6.53;2.55;;;;;;;27.04;45.99;98120.50;4396007;32;20209;-85
2023/07/06 08:06:22;;;;;;;7.07;2.78;;;;;;;27.77;43.17;98112.38;4382937;32;20074;-85
2023/07/06 08:08:50;;;;;;;8.35;2.72;;;;;;;27.63;42.04;98107.75;4401036;32;20856;-84
2023/07/06 08:11:21;;;;;;;7.50;2.53;;;;;;;28.03;41.33;98117.38;4385318;32;20519;-83
2023/07/06 08:13:53;;;;;;;7.45;2.50;;;;;;;27.78;43.21;98118.50;4393787;32;20090;-81
2023/07/06 08:16:21;;;;;;;7.45;2.55;;;;;;;28.01;42.23;98123.84;4394389;32;20124;-82
2023/07/06 08:18:50;;;;;;;6.22;2.30;;;;;;;28.00;42.48;98116.91;4394040;32;20173;-82
2023/07/06 08:21:32;;;;;;;8.13;2.92;;;;;;;27.59;41.97;98117.06;4393936;32;20105;-82
2023/07/06 08:24:17;;;;;;;6.60;2.60;;;;;;;27.37;42.95;98114.12;4394301;32;20445;-81
2023/07/06 08:26:45;;;;;;;6.97;2.65;;;;;;;27.62;42.43;98122.81;4393725;32;20436;-83
2023/07/06 08:29:12;;;;;;;6.28;2.25;;;;;;;27.32;43.83;98119.09;4393991;32;20171;-82
2023/07/06 08:31:39;;;;;;;5.93;2.37;;;;;;;26.39;44.25;98104.63;4393754;32;20154;-82
2023/07/06 08:34:06;;;;;;;8.98;2.80;;;;;;;27.62;43.80;98117.53;4380193;32;20543;-82
2023/07/06 08:36:33;;;;;;;7.43;2.50;;;;;;;28.31;41.33;98131.00;4393903;32;20098;-82
2023/07/06 08:39:02;;;;;;;10.82;2.75;;;;;;;28.75;40.70;98133.00;4393762;32;20142;-81
2023/07/06 08:41:37;;;;;;;5.75;2.35;;;;;;;30.06;39.87;98145.78;4393384;32;20090;-82
2023/07/06 08:44:07;;;;;;;7.18;2.80;;;;;;;29.16;39.90;98146.78;4382568;32;20106;-81
2023/07/06 08:46:38;;;;;;;6.45;2.42;;;;;;;27.86;40.91;98156.41;4396173;32;20733;-82
2023/07/06 08:49:18;;;;;;;6.32;2.33;;;;;;;27.71;41.43;98155.47;4395649;32;20491;-81
2023/07/06 08:51:45;;;;;;;7.68;2.65;;;;;;;26.52;44.28;98157.88;4395967;32;20108;-82
2023/07/06 08:54:21;;;;;;;7.72;2.95;;;;;;;26.68;42.43;98155.22;4382836;32;20569;-81
2023/07/06 08:56:49;;;;;;;6.50;2.47;;;;;;;27.08;42.33;98161.53;4407352;32;20124;-81
2023/07/06 08:59:40;;;;;;;5.22;2.20;;;;;;;26.77;43.17;98151.59;4395936;32;20205;-80
2023/07/06 09:02:09;;;;;;;7.32;2.55;;;;;;;28.37;40.98;98148.87;4391352;32;20099;-80
2023/07/06 09:04:36;;;;;;;9.68;2.72;;;;;;;28.68;40.75;98148.81;4395889;32;20121;-79
2023/07/06 09:07:05;;;;;;;6.05;2.30;;;;;;;28.45;41.34;98148.00;4382657;32;20117;-81
2023/07/06 09:09:34;;;;;;;7.57;2.80;;;;;;;29.45;38.14;98142.47;4382177;32;20113;-80
2023/07/06 09:12:13;;;;;;;6.93;2.72;;;;;;;28.56;39.33;98147.56;4382501;32;20152;-80
2023/07/06 09:14:43;;;;;;;7.53;2.60;;;;;;;29.33;36.86;98148.25;4382802;32;20098;-77
2023/07/06 09:17:16;;;;;;;5.97;2.47;;;;;;;29.50;35.38;98153.44;4395654;32;20448;-77
2023/07/06 09:19:47;;;;;;;6.28;2.50;;;;;;;29.67;33.07;98146.94;4382160;32;20086;-77
2023/07/06 09:22:14;;;;;;;8.63;2.92;;;;;;;29.90;34.61;98152.97;4395829;32;20155;-76
2023/07/06 09:24:47;;;;;;;6.45;2.60;;;;;;;30.43;36.84;98152.78;4395450;32;20162;-77
2023/07/06 09:27:26;;;;;;;6.57;2.80;;;;;;;30.75;34.79;98154.16;4395463;32;20129;-77
2023/07/06 09:30:06;;;;;;;7.43;3.00;;;;;;;29.65;34.61;98151.59;4395358;32;20801;-77
2023/07/06 09:32:34;;;;;;;9.95;3.08;;;;;;;29.50;35.05;98154.25;4395671;32;20109;-77
2023/07/06 09:35:08;;;;;;;8.98;3.53;;;;;;;30.27;33.40;98153.00;4395611;32;20109;-77
2023/07/06 09:37:45;;;;;;;9.48;3.10;;;;;;;30.31;32.16;98152.44;4395492;32;20156;-77
2023/07/06 09:40:14;;;;;;;6.75;2.78;;;;;;;31.44;32.75;98161.47;4395397;32;20147;-76
2023/07/06 09:42:41;;;;;;;8.85;3.50;;;;;;;29.94;33.23;98154.22;4395602;32;20082;-76
2023/07/06 09:45:31;;;;;;;7.47;3.00;;;;;;;30.45;33.38;98166.72;4395171;32;20116;-77
2023/07/06 09:48:03;;;;;;;7.65;3.10;;;;;;;30.52;32.50;98164.97;4395460;32;20113;-76
2023/07/06 09:50:37;;;;;;;9.63;3.50;;;;;;;30.79;32.14;98174.03;4395364;32;20087;-77
2023/07/06 09:53:07;;;;;;;7.85;2.92;;;;;;;30.65;32.69;98173.09;4381894;32;20118;-77
2023/07/06 09:55:34;;;;;;;8.38;3.03;;;;;;;30.47;32.62;98164.69;4395662;32;20146;-77
2023/07/06 09:58:02;;;;;;;8.18;3.20;;;;;;;28.58;34.10;98163.31;4382018;32;20141;-77
2023/07/06 10:00:35;;;;;;;8.45;3.40;;;;;;;28.84;36.44;98163.81;4395284;32;20117;-77
2023/07/06 10:03:36;;;;;;;8.05;3.12;;;;;;;29.92;37.85;98166.91;4369684;32;20125;-77
2023/07/06 10:06:44;;;;;;;7.43;3.03;;;;;;;30.32;36.67;98156.75;4395020;32;20095;-77
2023/07/06 10:09:17;;;;;;;;;;;;;;;30.18;37.10;98165.59;4351156;32;20117;-77
2023/07/06 10:11:52;;;;;;;8.77;3.28;;;;;;;31.26;37.83;98170.78;4378328;32;19991;-77
2023/07/06 10:14:44;;;;;;;10.18;3.50;;;;;;;29.68;38.69;98161.88;4381609;32;20078;-77
2023/07/06 10:17:34;;;;;;;8.30;3.20;;;;;;;30.74;37.05;98158.66;4381854;32;20140;-77
2023/07/06 10:20:17;;;;;;;7.78;3.33;;;;;;;31.02;36.24;98163.16;4381441;32;20114;-77
2023/07/06 10:22:50;;;;;;;9.70;3.47;;;;;;;30.67;37.36;98159.59;4383540;32;20085;-76
2023/07/06 10:25:24;;;;;;;8.18;3.15;;;;;;;31.17;35.50;98150.59;4395201;32;20074;-76
2023/07/06 10:28:08;;;;;;;10.52;3.28;;;;;;;31.11;36.56;98146.03;4394951;32;20133;-76
2023/07/06 10:30:38;;;;;;;8.05;3.30;;;;;;;30.67;36.30;98156.94;4381671;32;20113;-76
2023/07/06 10:33:11;;;;;;;7.85;3.25;;;;;;;30.09;35.92;98143.59;4395012;32;20165;-76
2023/07/06 10:35:45;;;;;;;9.40;3.25;;;;;;;30.36;34.52;98149.22;4381669;32;20082;-76
2023/07/06 10:38:13;;;;;;;10.00;3.35;;;;;;;29.44;36.05;98152.28;4395240;32;20107;-76
2023/07/06 10:40:40;;;;;;;8.80;3.00;;;;;;;29.85;35.90;98147.38;4394555;32;20479;-76
2023/07/06 10:43:20;;;;;;;10.02;3.25;;;;;;;29.59;37.04;98142.53;4395196;32;20145;-76
2023/07/06 10:45:59;;;;;;;8.93;3.22;;;;;;;31.03;36.36;98140.84;4395022;32;20070;-76
2023/07/06 10:48:28;;;;;;;8.60;3.20;;;;;;;30.75;32.72;98138.16;4394976;32;20098;-76
2023/07/06 10:51:06;;;;;;;10.77;3.50;;;;;;;29.99;34.70;98129.75;4394999;32;20154;-76
2023/07/06 10:53:43;;;;;;;9.55;3.05;;;;;;;30.50;36.03;98133.19;4395091;32;20153;-76
2023/07/06 10:56:19;;;;;;;8.52;3.15;;;;;;;30.87;35.97;98133.97;4394751;32;20415;-76
2023/07/06 10:58:58;;;;;;;8.43;2.92;;;;;;;31.16;36.95;98138.28;4395233;32;20173;-76
2023/07/06 11:02:11;;;;;;;8.52;3.22;;;;;;;31.37;35.44;98137.44;4381253;32;20121;-76
2023/07/06 11:04:41;;;;;;;8.40;3.10;;;;;;;30.98;35.85;98140.59;4384173;32;20110;-76
2023/07/06 11:07:42;;;;;;;9.52;3.33;;;;;;;30.88;37.40;98140.94;4394463;32;20156;-76
2023/07/06 11:10:21;;;;;;;9.45;3.12;;;;;;;30.85;37.36;98127.19;4394386;32;20456;-77
2023/07/06 11:13:01;;;;;;;8.77;3.03;;;;;;;30.82;36.43;98120.38;4395064;32;20141;-76
2023/07/06 11:15:38;;;;;;;9.98;3.25;;;;;;;30.33;35.29;98118.47;4394941;32;20145;-76
2023/07/06 11:18:22;;;;;;;7.55;3.05;;;;;;;30.19;35.24;98120.16;4381481;32;20153;-76
2023/07/06 11:20:51;;;;;;;8.80;3.40;;;;;;;29.65;35.94;98119.69;4394937;32;20090;-76
2023/07/06 11:23:27;;;;;;;10.20;3.40;;;;;;;30.96;33.75;98114.16;4381813;32;20461;-76
2023/07/06 11:25:54;;;;;;;8.80;3.30;;;;;;;30.85;32.24;98121.84;4381305;32;20437;-76
2023/07/06 11:28:23;;;;;;;7.32;3.12;;;;;;;30.35;33.52;98119.13;4394819;32;20466;-76
2023/07/06 11:31:20;;;;;;;8.57;3.40;;;;;;;28.79;35.16;98119.19;4394083;32;20106;-76
2023/07/06 11:33:55;;;;;;;9.95;3.60;;;;;;;29.98;34.88;98121.94;4381256;32;20172;-76
2023/07/06 11:36:29;;;;;;;10.35;3.10;;;;;;;28.98;35.35;98117.87;4380987;32;20121;-76
2023/07/06 11:39:00;;;;;;;10.18;3.25;;;;;;;28.67;34.94;98123.28;4394451;32;20083;-75
2023/07/06 11:41:58;;;;;;;9.50;3.22;;;;;;;29.78;34.62;98117.22;4394683;32;20141;-75
2023/07/06 11:44:35;;;;;;;9.35;3.25;;;;;;;29.44;36.56;98130.19;4394308;32;20448;-75
2023/07/06 11:47:11;;;;;;;;;;;;;;;29.64;37.09;98128.69;4394887;32;20102;-76
2023/07/06 11:49:47;;;;;;;8.32;3.00;;;;;;;29.82;36.33;98129.12;4394483;32;20285;-75
2023/07/06 11:52:26;;;;;;;10.00;3.60;;;;;;;29.41;35.10;98128.75;4380664;32;20126;-75
2023/07/06 11:55:05;;;;;;;13.25;4.85;;;;;;;29.89;35.94;98126.56;4380962;32;20148;-75